createdAt,value
2023-05-19T00:02:26.115Z,80.30
2023-05-19T00:04:53.309Z,80.98
2023-05-19T00:07:26.035Z,81.01
2023-05-19T00:09:53.011Z,82.09
2023-05-19T00:12:19.900Z,81.20
2023-05-19T00:14:46.963Z,82.00
2023-05-19T00:17:14.387Z,80.90
2023-05-19T00:19:41.098Z,81.87
2023-05-19T00:22:07.795Z,82.27
2023-05-19T00:24:34.637Z,82.18
2023-05-19T00:27:01.283Z,83.09
2023-05-19T00:29:29.001Z,83.12
2023-05-19T00:31:56.858Z,83.18
2023-05-19T00:34:23.743Z,82.83
2023-05-19T00:36:50.683Z,82.92
2023-05-19T00:39:17.464Z,81.92
2023-05-19T00:41:44.176Z,82.55
2023-05-19T00:44:11.321Z,82.36
2023-05-19T00:46:38.236Z,82.61
2023-05-19T00:49:05.266Z,82.74
2023-05-19T00:51:32.524Z,81.91
2023-05-19T00:53:59.434Z,82.22
2023-05-19T00:56:26.923Z,82.37
2023-05-19T00:58:54.775Z,83.47
2023-05-19T01:01:22.397Z,84.07
2023-05-19T01:03:49.928Z,83.35
2023-05-19T01:06:19.127Z,83.23
2023-05-19T01:08:46.521Z,83.05
2023-05-19T01:11:13.181Z,83.83
2023-05-19T01:13:42.069Z,83.58
2023-05-19T01:16:19.406Z,83.92
2023-05-19T01:19:22.013Z,83.35
2023-05-19T01:22:32.054Z,83.98
2023-05-19T01:25:47.650Z,84.13
2023-05-19T01:28:37.060Z,83.91
2023-05-19T01:31:08.134Z,83.60
2023-05-19T01:33:35.937Z,82.45
2023-05-19T01:36:05.852Z,82.44
2023-05-19T01:38:34.217Z,83.41
2023-05-19T01:41:03.926Z,83.05
2023-05-19T01:43:31.244Z,82.78
2023-05-19T01:45:59.027Z,83.55
2023-05-19T01:48:27.318Z,83.86
2023-05-19T01:50:57.174Z,84.29
2023-05-19T01:53:24.796Z,83.98
2023-05-19T01:55:57.338Z,84.06
2023-05-19T01:58:45.458Z,83.87
2023-05-19T02:01:29.140Z,84.15
2023-05-19T02:04:18.746Z,83.65
2023-05-19T02:07:05.570Z,82.77
2023-05-19T02:10:04.247Z,83.15
2023-05-19T02:12:36.167Z,82.09
2023-05-19T02:15:16.401Z,83.28
2023-05-19T02:17:53.025Z,83.45
2023-05-19T02:20:24.592Z,83.20
2023-05-19T02:22:52.434Z,83.20
2023-05-19T02:25:22.804Z,83.72
2023-05-19T02:27:53.154Z,84.15
2023-05-19T02:30:20.938Z,83.87
2023-05-19T02:32:49.381Z,84.13
2023-05-19T02:35:19.288Z,83.74
2023-05-19T02:37:47.308Z,84.66
2023-05-19T02:40:17.180Z,84.68
2023-05-19T02:42:46.768Z,84.94
2023-05-19T02:45:17.385Z,84.81
2023-05-19T02:47:51.092Z,84.52
2023-05-19T02:50:20.325Z,84.28
2023-05-19T02:52:50.285Z,84.95
2023-05-19T02:55:17.697Z,84.38
2023-05-19T02:57:44.611Z,84.59
2023-05-19T03:00:12.132Z,85.12
2023-05-19T03:02:43.014Z,84.92
2023-05-19T03:05:15.310Z,84.82
2023-05-19T03:07:44.531Z,85.25
2023-05-19T03:10:11.772Z,85.64
2023-05-19T03:12:38.430Z,85.30
2023-05-19T03:15:05.442Z,85.28
2023-05-19T03:17:34.272Z,85.22
2023-05-19T03:20:01.713Z,84.90
2023-05-19T03:22:28.462Z,84.97
2023-05-19T03:24:55.261Z,85.73
2023-05-19T03:27:22.230Z,86.08
2023-05-19T03:29:49.130Z,85.75
2023-05-19T03:32:15.951Z,85.81
2023-05-19T03:34:42.631Z,86.31
2023-05-19T03:37:10.720Z,85.90
2023-05-19T03:39:38.461Z,85.41
2023-05-19T03:42:05.696Z,86.22
2023-05-19T03:44:32.385Z,85.87
2023-05-19T03:47:00.351Z,85.99
2023-05-19T03:50:02.422Z,86.39
2023-05-19T03:52:53.582Z,86.00
2023-05-19T03:55:29.933Z,86.22
2023-05-19T03:57:57.146Z,85.16
2023-05-19T04:00:23.961Z,85.45
2023-05-19T04:02:51.377Z,86.14
2023-05-19T04:05:18.178Z,86.03
2023-05-19T04:07:46.657Z,85.80
2023-05-19T04:10:13.976Z,85.33
2023-05-19T04:12:40.776Z,85.12
2023-05-19T04:15:08.151Z,85.59
2023-05-19T04:17:35.539Z,86.54
2023-05-19T04:20:02.905Z,86.52
2023-05-19T04:22:29.973Z,86.88
2023-05-19T04:24:56.679Z,86.81
2023-05-19T04:27:24.254Z,86.19
2023-05-19T04:29:50.865Z,85.64
2023-05-19T04:32:17.911Z,86.27
2023-05-19T04:34:47.643Z,86.59
2023-05-19T04:37:22.730Z,86.99
2023-05-19T04:39:50.023Z,87.23
2023-05-19T04:42:21.336Z,87.18
2023-05-19T04:44:52.041Z,86.42
2023-05-19T04:47:21.636Z,86.11
2023-05-19T04:49:49.100Z,86.91
2023-05-19T04:52:16.082Z,87.11
2023-05-19T04:54:43.016Z,86.89
2023-05-19T04:57:12.736Z,87.52
2023-05-19T04:59:40.036Z,87.43
2023-05-19T05:02:08.212Z,87.22
2023-05-19T05:04:37.537Z,86.53
2023-05-19T05:07:04.438Z,87.17
2023-05-19T05:09:31.121Z,87.49
2023-05-19T05:12:00.946Z,87.96
2023-05-19T05:14:28.193Z,88.13
2023-05-19T05:16:56.051Z,88.46
2023-05-19T05:19:24.737Z,88.50
2023-05-19T05:21:52.317Z,88.25
2023-05-19T05:24:19.914Z,88.02
2023-05-19T05:26:51.605Z,88.93
2023-05-19T05:29:18.403Z,88.06
2023-05-19T05:31:45.093Z,88.52
2023-05-19T05:34:11.998Z,87.28
2023-05-19T05:36:38.642Z,88.03
2023-05-19T05:39:05.648Z,88.26
2023-05-19T05:41:35.587Z,87.76
2023-05-19T05:44:08.887Z,88.12
2023-05-19T05:46:36.542Z,88.05
2023-05-19T05:49:03.909Z,89.12
2023-05-19T05:51:32.871Z,89.30
2023-05-19T05:54:00.848Z,90.26
2023-05-19T05:56:36.798Z,90.54
2023-05-19T05:59:05.845Z,89.12
2023-05-19T06:01:34.858Z,89.56
2023-05-19T06:04:04.709Z,89.18
2023-05-19T06:06:32.709Z,89.20
2023-05-19T06:09:01.531Z,89.73
2023-05-19T06:11:29.118Z,89.80
2023-05-19T06:13:58.310Z,89.00
2023-05-19T06:16:50.770Z,89.25
2023-05-19T06:19:19.960Z,89.52
2023-05-19T06:21:46.782Z,89.29
2023-05-19T06:24:14.664Z,88.83
2023-05-19T06:26:41.834Z,89.87
2023-05-19T06:29:08.678Z,90.64
2023-05-19T06:31:35.395Z,90.89
2023-05-19T06:34:12.456Z,90.96
2023-05-19T06:36:41.356Z,90.85
2023-05-19T06:39:08.720Z,90.61
2023-05-19T06:41:36.026Z,89.77
2023-05-19T06:44:04.356Z,89.23
2023-05-19T06:46:33.394Z,90.33
2023-05-19T06:49:00.633Z,90.30
2023-05-19T06:51:31.388Z,89.69
2023-05-19T06:53:59.760Z,89.64
2023-05-19T06:56:27.344Z,90.85
2023-05-19T06:58:54.176Z,91.43
2023-05-19T07:01:26.671Z,91.43
2023-05-19T07:04:00.503Z,91.26
2023-05-19T07:06:27.783Z,91.33
2023-05-19T07:08:54.562Z,90.69
2023-05-19T07:11:21.913Z,92.12
2023-05-19T07:13:48.997Z,91.68
2023-05-19T07:16:22.545Z,91.91
2023-05-19T07:18:49.378Z,91.62
2023-05-19T07:21:16.414Z,89.91
2023-05-19T07:23:43.226Z,90.40
2023-05-19T07:26:11.679Z,90.99
2023-05-19T07:28:41.319Z,92.05
2023-05-19T07:31:08.489Z,91.33
2023-05-19T07:33:35.186Z,92.47
2023-05-19T07:36:01.984Z,92.03
2023-05-19T07:38:30.305Z,90.68
2023-05-19T07:40:57.062Z,92.13
2023-05-19T07:43:24.011Z,91.03
2023-05-19T07:45:51.183Z,91.17
2023-05-19T07:48:18.804Z,92.16
2023-05-19T07:50:45.610Z,90.82
2023-05-19T07:53:12.341Z,91.42
2023-05-19T07:55:39.100Z,92.38
2023-05-19T07:58:06.596Z,88.04
2023-05-19T08:00:34.015Z,90.06
2023-05-19T08:03:01.807Z,88.25
2023-05-19T08:05:29.808Z,89.64
2023-05-19T08:07:57.477Z,91.34
2023-05-19T08:10:24.243Z,92.53
2023-05-19T08:12:50.908Z,92.93
2023-05-19T08:15:19.793Z,92.55
2023-05-19T08:17:46.593Z,92.13
2023-05-19T08:20:14.131Z,90.54
2023-05-19T08:22:40.988Z,90.46
2023-05-19T08:25:07.919Z,90.61
2023-05-19T08:27:34.572Z,91.18
2023-05-19T08:30:01.487Z,89.77
2023-05-19T08:32:28.178Z,90.67
2023-05-19T08:34:54.888Z,87.91
2023-05-19T08:37:21.660Z,90.01
2023-05-19T08:39:48.391Z,90.19
2023-05-19T08:42:15.166Z,89.99
2023-05-19T08:44:44.054Z,89.83
2023-05-19T08:47:13.992Z,88.60
2023-05-19T08:49:45.803Z,88.00
2023-05-19T08:52:58.250Z,90.15
2023-05-19T08:55:47.148Z,89.87
2023-05-19T08:58:16.351Z,88.81
2023-05-19T09:00:44.248Z,90.33
2023-05-19T09:05:44.080Z,86.26
2023-05-19T09:08:11.196Z,88.29
2023-05-19T09:10:37.921Z,89.72
2023-05-19T09:13:05.785Z,88.28
2023-05-19T09:15:34.077Z,91.28
2023-05-19T09:18:19.272Z,91.31
2023-05-19T09:20:47.177Z,91.27
2023-05-19T09:23:15.884Z,91.71
2023-05-19T09:25:50.398Z,91.46
2023-05-19T09:28:38.105Z,91.21
2023-05-19T09:31:06.280Z,91.46
2023-05-19T09:33:37.081Z,89.71
2023-05-19T09:36:08.514Z,90.78
2023-05-19T09:38:36.901Z,90.89
2023-05-19T09:41:05.689Z,91.47
2023-05-19T09:43:34.463Z,90.66
2023-05-19T09:46:07.880Z,89.83
2023-05-19T09:48:36.479Z,89.96
2023-05-19T09:51:08.075Z,89.33
2023-05-19T09:53:35.327Z,90.12
2023-05-19T09:56:03.573Z,87.99
2023-05-19T09:58:37.112Z,90.88
2023-05-19T10:01:05.107Z,89.97
2023-05-19T10:03:35.344Z,90.07
2023-05-19T10:06:04.906Z,90.81
2023-05-19T10:08:33.508Z,92.34
2023-05-19T10:11:00.725Z,92.19
2023-05-19T10:13:29.641Z,89.55
2023-05-19T10:15:59.771Z,90.86
2023-05-19T10:18:30.398Z,90.66
2023-05-19T10:20:57.991Z,91.49
2023-05-19T10:23:25.600Z,89.08
2023-05-19T10:25:56.648Z,88.73
2023-05-19T10:28:28.060Z,90.49
2023-05-19T10:30:58.806Z,83.00
2023-05-19T10:33:45.053Z,83.46
2023-05-19T10:36:14.829Z,86.57
2023-05-19T10:38:58.831Z,86.79
2023-05-19T10:41:53.719Z,86.34
2023-05-19T10:44:40.922Z,86.70
2023-05-19T10:47:08.658Z,88.45
2023-05-19T10:49:36.686Z,85.68
2023-05-19T10:52:04.316Z,85.43
2023-05-19T10:54:40.863Z,84.79
2023-05-19T10:57:08.385Z,84.69
2023-05-19T10:59:37.763Z,83.22
2023-05-19T11:02:08.797Z,80.69
2023-05-19T11:04:52.472Z,80.91
2023-05-19T11:07:21.705Z,84.08
2023-05-19T11:09:52.654Z,83.98
2023-05-19T11:12:24.802Z,85.39
2023-05-19T11:14:55.451Z,83.73
2023-05-19T11:17:25.150Z,83.71
2023-05-19T11:19:56.483Z,83.71
2023-05-19T11:22:26.190Z,78.38
2023-05-19T11:24:55.241Z,79.22
2023-05-19T11:27:32.538Z,80.37
2023-05-19T11:30:05.487Z,79.41
2023-05-19T11:32:34.725Z,80.56
2023-05-19T11:35:02.414Z,82.00
2023-05-19T11:37:32.662Z,83.30
2023-05-19T11:40:02.165Z,83.69
2023-05-19T11:42:28.823Z,81.93
2023-05-19T11:44:56.508Z,81.43
2023-05-19T11:47:23.386Z,81.91
2023-05-19T11:49:54.798Z,81.73
2023-05-19T11:52:23.154Z,82.45
2023-05-19T11:54:50.754Z,82.16
2023-05-19T11:57:17.639Z,82.22
2023-05-19T11:59:45.827Z,81.78
2023-05-19T12:02:14.068Z,81.57
2023-05-19T12:04:41.196Z,83.07
2023-05-19T12:07:08.338Z,83.28
2023-05-19T12:09:35.792Z,83.59
2023-05-19T12:12:03.112Z,84.05
2023-05-19T12:14:31.180Z,83.69
2023-05-19T12:16:58.220Z,84.78
2023-05-19T12:19:25.840Z,86.15
2023-05-19T12:21:53.960Z,86.05
2023-05-19T12:24:21.791Z,85.55
2023-05-19T12:26:50.583Z,86.34
2023-05-19T12:29:17.378Z,83.21
2023-05-19T12:31:47.119Z,84.33
2023-05-19T12:34:13.922Z,85.01
2023-05-19T12:36:41.597Z,84.77
2023-05-19T12:39:09.523Z,85.47
2023-05-19T12:41:44.857Z,86.23
2023-05-19T12:44:17.696Z,86.83
2023-05-19T12:46:44.469Z,87.54
2023-05-19T12:49:11.146Z,87.65
2023-05-19T12:51:38.074Z,86.23
2023-05-19T12:54:05.062Z,85.72
2023-05-19T12:56:31.862Z,85.51
2023-05-19T12:59:01.711Z,86.48
2023-05-19T13:01:29.533Z,86.94
2023-05-19T13:03:56.438Z,87.04
2023-05-19T13:06:23.544Z,87.01
2023-05-19T13:08:50.211Z,86.70
2023-05-19T13:11:16.898Z,87.65
2023-05-19T13:13:43.667Z,86.72
2023-05-19T13:16:10.642Z,85.77
2023-05-19T13:18:38.451Z,85.22
2023-05-19T13:21:05.803Z,84.16
2023-05-19T13:23:32.578Z,85.50
2023-05-19T13:25:59.410Z,86.80
2023-05-19T13:28:26.411Z,88.76
2023-05-19T13:30:53.266Z,88.44
2023-05-19T13:33:20.066Z,88.36
2023-05-19T13:35:46.800Z,88.20
2023-05-19T13:38:15.627Z,88.02
2023-05-19T13:40:44.423Z,88.56
2023-05-19T13:43:11.205Z,87.24
2023-05-19T13:45:38.022Z,87.39
2023-05-19T13:48:07.695Z,86.98
2023-05-19T13:50:34.962Z,87.29
2023-05-19T13:53:01.670Z,88.58
2023-05-19T13:55:29.025Z,88.75
2023-05-19T13:57:55.766Z,88.54
2023-05-19T14:00:23.064Z,89.66
2023-05-19T14:02:49.933Z,91.10
2023-05-19T14:05:17.125Z,90.29
2023-05-19T14:07:44.993Z,89.58
2023-05-19T14:10:11.953Z,88.84
2023-05-19T14:12:52.787Z,90.55
2023-05-19T14:15:26.572Z,90.94
2023-05-19T14:17:53.697Z,90.79
2023-05-19T14:20:20.527Z,91.07
2023-05-19T14:22:47.268Z,89.05
2023-05-19T14:25:14.266Z,90.43
2023-05-19T14:27:41.335Z,91.50
2023-05-19T14:30:08.797Z,91.99
2023-05-19T14:32:36.007Z,92.70
2023-05-19T14:35:02.845Z,92.48
2023-05-19T14:37:31.727Z,92.75
2023-05-19T14:39:58.902Z,91.83
2023-05-19T14:42:25.969Z,91.77
2023-05-19T14:44:52.798Z,92.61
2023-05-19T14:47:19.463Z,92.66
2023-05-19T14:49:46.263Z,93.50
2023-05-19T14:52:13.082Z,93.09
2023-05-19T14:54:39.803Z,92.20
2023-05-19T14:57:08.392Z,92.95
2023-05-19T14:59:39.076Z,93.73
2023-05-19T15:02:06.444Z,93.95
2023-05-19T15:04:33.166Z,93.76
2023-05-19T15:09:29.590Z,92.88
2023-05-19T15:11:56.311Z,93.78
2023-05-19T15:14:23.866Z,93.01
2023-05-19T15:16:50.659Z,92.67
2023-05-19T15:19:17.368Z,94.52
2023-05-19T15:21:45.657Z,95.72
2023-05-19T15:24:12.463Z,95.63
2023-05-19T15:26:39.403Z,96.63
2023-05-19T15:29:06.170Z,96.34
2023-05-19T15:31:35.038Z,95.98
2023-05-19T15:34:03.341Z,95.87
2023-05-19T15:36:30.050Z,96.67
2023-05-19T15:38:56.910Z,96.88
2023-05-19T15:41:23.638Z,96.40
2023-05-19T15:43:50.431Z,96.54
2023-05-19T15:46:19.637Z,95.61
2023-05-19T15:48:46.384Z,95.04
2023-05-19T15:51:13.133Z,94.13
2023-05-19T15:53:39.944Z,94.54
2023-05-19T15:56:06.723Z,94.87
2023-05-19T15:58:33.534Z,94.88
2023-05-19T16:01:00.645Z,95.47
2023-05-19T16:03:27.599Z,95.15
2023-05-19T16:05:54.419Z,95.04
2023-05-19T16:08:22.177Z,93.16
2023-05-19T16:10:49.242Z,92.60
2023-05-19T16:13:16.085Z,92.55
2023-05-19T16:15:42.774Z,93.08
2023-05-19T16:18:09.639Z,93.50
2023-05-19T16:20:36.361Z,94.19
2023-05-19T16:23:03.329Z,93.59
2023-05-19T16:25:30.491Z,93.66
2023-05-19T16:27:57.516Z,94.36
2023-05-19T16:30:26.309Z,94.39
2023-05-19T16:32:54.383Z,95.18
2023-05-19T16:35:21.868Z,94.86
2023-05-19T16:37:49.247Z,94.63
2023-05-19T16:40:15.980Z,94.37
2023-05-19T16:42:42.742Z,94.03
2023-05-19T16:45:09.991Z,93.77
2023-05-19T16:47:36.872Z,94.01
2023-05-19T16:50:04.024Z,94.41
2023-05-19T16:52:30.777Z,94.62
2023-05-19T16:54:57.475Z,94.25
2023-05-19T16:57:24.774Z,95.64
2023-05-19T16:59:52.012Z,95.60
2023-05-19T17:02:18.835Z,95.82
2023-05-19T17:04:45.764Z,95.74
2023-05-19T17:07:16.704Z,95.51
2023-05-19T17:09:43.975Z,94.94
2023-05-19T17:12:10.961Z,95.73
2023-05-19T17:14:37.869Z,95.69
2023-05-19T17:17:04.869Z,94.47
2023-05-19T17:19:31.836Z,94.05
2023-05-19T17:21:58.629Z,93.81
2023-05-19T17:24:25.731Z,94.92
2023-05-19T17:26:52.433Z,95.41
2023-05-19T17:29:19.257Z,95.08
2023-05-19T17:31:45.979Z,95.44
2023-05-19T17:34:12.801Z,95.21
2023-05-19T17:36:39.420Z,96.02
2023-05-19T17:39:06.243Z,95.75
2023-05-19T17:41:33.153Z,95.84
2023-05-19T17:44:00.114Z,95.57
2023-05-19T17:46:26.822Z,95.91
2023-05-19T17:48:53.629Z,95.80
2023-05-19T17:51:21.192Z,94.64
2023-05-19T17:53:48.340Z,95.17
2023-05-19T17:56:15.240Z,95.70
2023-05-19T17:58:42.516Z,95.85
2023-05-19T18:01:09.490Z,96.13
2023-05-19T18:03:36.840Z,96.08
2023-05-19T18:06:03.874Z,96.21
2023-05-19T18:08:31.669Z,95.90
2023-05-19T18:10:58.724Z,95.82
2023-05-19T18:13:26.506Z,95.42
2023-05-19T18:15:53.285Z,96.18
2023-05-19T18:18:19.991Z,96.62
2023-05-19T18:20:46.735Z,96.70
2023-05-19T18:23:13.533Z,94.55
2023-05-19T18:25:40.304Z,94.92
2023-05-19T18:28:07.639Z,95.08
2023-05-19T18:30:34.494Z,95.43
2023-05-19T18:33:03.740Z,95.95
2023-05-19T18:35:30.789Z,96.72
2023-05-19T18:37:57.548Z,96.96
2023-05-19T18:40:24.509Z,96.59
2023-05-19T18:42:51.284Z,96.41
2023-05-19T18:45:18.164Z,96.50
2023-05-19T18:47:45.102Z,96.48
2023-05-19T18:50:11.913Z,95.58
2023-05-19T18:52:38.650Z,96.12
2023-05-19T18:55:07.084Z,95.40
2023-05-19T18:57:33.866Z,95.20
2023-05-19T19:00:00.465Z,94.67
2023-05-19T19:02:27.168Z,95.18
2023-05-19T19:04:53.951Z,95.68
2023-05-19T19:07:20.851Z,95.81
2023-05-19T19:09:47.461Z,94.94
2023-05-19T19:12:14.568Z,94.87
2023-05-19T19:14:41.732Z,95.48
2023-05-19T19:17:08.503Z,95.20
2023-05-19T19:19:35.388Z,95.03
2023-05-19T19:22:02.221Z,95.52
2023-05-19T19:24:30.793Z,96.48
2023-05-19T19:26:57.696Z,96.77
2023-05-19T19:29:24.405Z,97.12
2023-05-19T19:31:51.302Z,96.76
2023-05-19T19:34:19.860Z,96.36
2023-05-19T19:36:47.805Z,96.30
2023-05-19T19:39:14.686Z,96.23
2023-05-19T19:41:41.545Z,97.23
2023-05-19T19:44:08.206Z,97.41
2023-05-19T19:46:35.318Z,96.60
2023-05-19T19:49:02.150Z,96.90
2023-05-19T19:51:28.890Z,97.08
2023-05-19T19:53:55.606Z,96.98
2023-05-19T19:56:24.671Z,97.76
2023-05-19T19:58:51.720Z,98.30
2023-05-19T20:01:23.465Z,98.89
2023-05-19T20:03:50.636Z,98.06
2023-05-19T20:06:21.133Z,97.76
2023-05-19T20:08:49.035Z,97.96
2023-05-19T20:11:16.482Z,98.26
2023-05-19T20:13:43.666Z,97.83
2023-05-19T20:16:10.642Z,97.62
2023-05-19T20:18:37.626Z,97.30
2023-05-19T20:21:04.393Z,97.17
2023-05-19T20:23:31.297Z,96.68
2023-05-19T20:26:11.072Z,96.46
2023-05-19T20:28:39.849Z,95.32
2023-05-19T20:31:07.179Z,95.45
2023-05-19T20:33:34.438Z,96.11
2023-05-19T20:36:01.676Z,96.91
2023-05-19T20:38:28.637Z,97.55
2023-05-19T20:40:55.780Z,97.02
2023-05-19T20:43:22.681Z,97.18
2023-05-19T20:45:51.368Z,97.10
2023-05-19T20:48:20.458Z,97.28
2023-05-19T20:50:50.644Z,96.49
2023-05-19T20:53:20.459Z,96.36
2023-05-19T20:55:48.275Z,95.64
2023-05-19T20:58:15.466Z,95.59
2023-05-19T21:00:42.161Z,95.39
2023-05-19T21:03:09.099Z,95.64
2023-05-19T21:05:36.336Z,96.12
2023-05-19T21:08:03.252Z,96.38
2023-05-19T21:10:30.175Z,96.88
2023-05-19T21:12:58.855Z,97.13
2023-05-19T21:15:27.057Z,96.23
2023-05-19T21:17:53.896Z,96.23
2023-05-19T21:20:20.884Z,95.72
2023-05-19T21:22:47.678Z,95.48
2023-05-19T21:25:14.501Z,95.91
2023-05-19T21:27:41.407Z,95.97
2023-05-19T21:30:09.820Z,95.80
2023-05-19T21:32:36.665Z,95.87
2023-05-19T21:35:04.059Z,95.75
2023-05-19T21:37:30.975Z,95.09
2023-05-19T21:39:57.825Z,94.74
2023-05-19T21:42:24.581Z,94.35
2023-05-19T21:44:51.351Z,92.71
2023-05-19T21:47:18.162Z,93.82
2023-05-19T21:49:44.920Z,93.44
2023-05-19T21:52:11.625Z,95.05
2023-05-19T21:54:38.250Z,96.03
2023-05-19T21:57:05.609Z,95.61
2023-05-19T21:59:32.256Z,95.79
2023-05-19T22:01:59.282Z,95.89
2023-05-19T22:04:26.624Z,95.63
2023-05-19T22:06:53.422Z,95.92
2023-05-19T22:09:20.037Z,95.88
2023-05-19T22:11:46.751Z,96.04
2023-05-19T22:14:13.925Z,97.12
2023-05-19T22:16:41.083Z,95.80
2023-05-19T22:19:09.054Z,96.14
2023-05-19T22:21:36.510Z,95.83
2023-05-19T22:24:03.412Z,96.09
2023-05-19T22:26:30.502Z,96.94
2023-05-19T22:28:57.313Z,96.93
2023-05-19T22:31:24.113Z,97.37
2023-05-19T22:33:50.885Z,96.99
2023-05-19T22:36:17.818Z,96.84
2023-05-19T22:38:44.530Z,97.30
2023-05-19T22:41:11.260Z,97.28
2023-05-19T22:43:37.965Z,97.60
2023-05-19T22:46:05.095Z,98.12
2023-05-19T22:48:31.814Z,96.89
2023-05-19T22:50:58.731Z,95.71
2023-05-19T22:53:25.416Z,96.87
2023-05-19T22:55:52.125Z,96.96
2023-05-19T22:58:19.056Z,95.65
2023-05-19T23:00:45.974Z,96.21
2023-05-19T23:03:12.713Z,96.71
2023-05-19T23:05:40.273Z,95.55
2023-05-19T23:08:06.965Z,95.25
2023-05-19T23:10:33.852Z,94.46
2023-05-19T23:13:00.982Z,94.87
2023-05-19T23:15:27.716Z,94.98
2023-05-19T23:17:54.516Z,94.87
2023-05-19T23:20:21.350Z,95.80
2023-05-19T23:22:48.005Z,96.64
2023-05-19T23:25:14.794Z,96.93
2023-05-19T23:27:41.432Z,95.88
2023-05-19T23:30:08.694Z,95.36
2023-05-19T23:32:35.431Z,95.05
2023-05-19T23:35:16.803Z,95.42
2023-05-19T23:37:43.648Z,96.69
2023-05-19T23:40:10.576Z,95.26
2023-05-19T23:42:37.442Z,95.28
2023-05-19T23:45:04.592Z,96.49
2023-05-19T23:47:31.430Z,95.39
2023-05-19T23:49:58.265Z,95.32
2023-05-19T23:52:24.972Z,95.78
2023-05-19T23:54:51.644Z,96.18
2023-05-19T23:57:18.388Z,96.52
2023-05-19T23:59:45.098Z,95.57
